• Join FlightAware (Why Join?)
  • Login
  • US Flag 
10:39AM EDT


 

Airport Tracker/Info


-or-


 

Live Flight TrackerFlight Track Log ✈ N71ST ✈ 03-May-2013 ✈ KFDK - KBED

Flight Track Log - Related Links

Times and Time Zones

All times are in EDT time to prevent confusion due to time zone crossing. See the N71ST flight status page for this flight to view local times or setup timezone preferences in your user account.

Time Position Orientation Groundspeed Altitude Reporting Facility
EDT Latitude Longitude Course Direction KTS MPH feet Rate Location/Type
05:06PM 39.5000 -77.2500 54° Northeast 121 139 3,000  Level Potomac TRACON
05:07PM 39.5167 -77.2167 57° Northeast 98 113 3,800 660 Climbing Potomac TRACON
05:08PM 39.5167 -77.1833 90° East 97 112 4,400 540 Climbing Potomac TRACON
05:09PM 39.5333 -77.1667 38° Northeast 97 112 5,000 600 Climbing Potomac TRACON
05:10PM 39.5500 -77.1333 57° Northeast 90 104 5,700 660 Climbing Potomac TRACON
05:11PM 39.4199 -77.3701 54° Northeast  Level Estimated
05:11PM 39.5667 -77.1167 38° Northeast 87 100 6,400  Level Potomac TRACON
05:12PM 39.5833 -77.0833 57° Northeast 78 90 7,000 540 Climbing Potomac TRACON
05:13PM 39.6000 -77.0667 38° Northeast 89 102 7,600 480 Climbing Potomac TRACON
05:15PM 39.6317 -77.0089 55° Northeast 94 108 8,700 480 Climbing New York Center
05:16PM 39.6500 -76.9781 52° Northeast 89 102 9,200 300 Climbing New York Center
05:17PM 39.6639 -76.9522 55° Northeast 89 102 9,400 60 Climbing New York Center
05:18PM 39.6803 -76.9133 61° Northeast 100 115 9,400  Level New York Center
05:19PM 39.6967 -76.8797 58° Northeast 107 123 9,400  Level New York Center
05:20PM 39.7175 -76.8436 53° Northeast 112 129 9,500 60 Climbing New York Center
05:21PM 39.7381 -76.8075 53° Northeast 117 135 9,600  Climbing New York Center
05:22PM 39.7589 -76.7661 57° Northeast 117 135 9,600  Level New York Center
05:23PM 39.7753 -76.7297 60° Northeast 122 140 9,600  Level New York Center
05:24PM 39.7961 -76.6883 57° Northeast 122 140 9,600 -60 Level New York Center
05:25PM 39.8167 -76.6522 53° Northeast 122 140 9,500 -60 Descending New York Center
05:26PM 39.8394 -76.6136 52° Northeast 122 140 9,500  Level New York Center
05:27PM 39.8578 -76.5800 55° Northeast 122 140 9,500  Level New York Center
05:28PM 39.8808 -76.5383 54° Northeast 122 140 9,500  Level New York Center
05:29PM 39.8992 -76.5047 55° Northeast 122 140 9,500  Level New York Center
05:30PM 39.9219 -76.4633 54° Northeast 122 140 9,500  Level New York Center
05:31PM 39.9403 -76.4297 55° Northeast 122 140 9,600  Climbing New York Center
05:32PM 39.9631 -76.3908 53° Northeast 122 140 9,500 -60 Descending New York Center
05:33PM 39.9814 -76.3544 57° Northeast 122 140 9,500  Level New York Center
05:34PM 40.0061 -76.3131 52° Northeast 122 140 9,500  Level New York Center
05:35PM 40.0244 -76.2792 55° Northeast 122 140 9,500  Level New York Center
05:36PM 40.0453 -76.2375 57° Northeast 122 140 9,500  Level New York Center
05:37PM 40.0636 -76.1981 59° Northeast 122 140 9,500  Level New York Center
05:38PM 40.0842 -76.1592 55° Northeast 122 140 9,500  Level New York Center
05:39PM 40.1047 -76.1228 54° Northeast 122 140 9,500  Level New York Center
05:40PM 40.1211 -76.0833 61° Northeast 122 140 9,500 -60 Level New York Center
05:41PM 40.1397 -76.0411 60° Northeast 122 140 9,400  Descending New York Center
05:42PM 40.1600 -76.0047 54° Northeast 122 140 9,500  Climbing New York Center
05:43PM 40.1783 -75.9681 57° Northeast 122 140 9,500  Level New York Center
05:44PM 40.2028 -75.9319 48° Northeast 122 140 9,500  Level New York Center
05:45PM 40.2208 -75.8978 55° Northeast 122 140 9,500  Level New York Center
05:46PM 40.2372 -75.8583 61° Northeast 122 140 9,600  Climbing New York Center
05:47PM 40.2578 -75.8189 56° Northeast 122 140 9,600  Level New York Center
05:48PM 40.2803 -75.7769 55° Northeast 122 140 9,600  Level New York Center
05:49PM 40.2986 -75.7403 57° Northeast 122 140 9,600  Level New York Center
05:50PM 40.3186 -75.7064 52° Northeast 122 140 9,600  Level New York Center
05:51PM 40.3369 -75.6694 57° Northeast 122 140 9,600  Level New York Center
05:52PM 40.3594 -75.6303 53° Northeast 122 140 9,600  Level New York Center
05:53PM 40.3797 -75.5908 56° Northeast 122 140 9,600  Level New York Center
05:54PM 40.4000 -75.5539 54° Northeast 122 140 9,600 -60 Level New York Center
05:55PM 40.4181 -75.5197 55° Northeast 122 140 9,500 -60 Descending New York Center
05:56PM 40.4425 -75.4806 51° Northeast 122 140 9,500  Level New York Center
05:57PM 40.4608 -75.4436 57° Northeast 122 140 9,500  Level New York Center
05:58PM 40.4789 -75.4067 57° Northeast 122 140 9,500  Level New York Center
05:59PM 40.4992 -75.3672 56° Northeast 122 140 9,500  Level New York Center
06:00PM 40.5194 -75.3303 54° Northeast 122 140 9,500  Level New York Center
06:01PM 40.5356 -75.2903 62° Northeast 122 140 9,500  Level New York Center
06:02PM 40.5556 -75.2533 55° Northeast 122 140 9,500  Level New York Center
06:03PM 40.5739 -75.2136 59° Northeast 122 140 9,600  Climbing New York Center
06:04PM 40.5917 -75.1819 54° Northeast 122 140 9,500 -60 Descending New York Center
06:05PM 40.6119 -75.1394 58° Northeast 122 140 9,500  Level New York Center
06:06PM 40.6303 -75.0969 60° Northeast 122 140 9,600  Climbing New York Center
06:07PM 40.6483 -75.0597 57° Northeast 122 140 9,600  Level New York Center
06:08PM 40.6642 -75.0253 59° Northeast 122 140 9,600  Level New York Center
06:09PM 40.6842 -74.9856 56° Northeast 122 140 9,600  Level New York Center
06:10PM 40.7044 -74.9456 56° Northeast 122 140 9,600  Level New York Center
06:11PM 40.7244 -74.9086 54° Northeast 122 140 9,600 -60 Level New York Center
06:12PM 40.7469 -74.8661 55° Northeast 122 140 9,500  Descending New York Center
06:13PM 40.7647 -74.8342 54° Northeast 122 140 9,600  Climbing New York Center
06:14PM 40.7869 -74.7944 54° Northeast 122 140 9,600  Level New York Center
06:15PM 40.8047 -74.7600 56° Northeast 122 140 9,600  Level New York Center
06:16PM 40.8269 -74.7172 56° Northeast 122 140 9,600 -60 Level New York Center
06:17PM 40.8447 -74.6853 54° Northeast 122 140 9,500 -60 Descending New York Center
06:18PM 40.8650 -74.6400 59° Northeast 122 140 9,500 60 Level New York Center
06:18PM 40.8667 -74.6167 85° East 126 145 9,600  Climbing New York TRACON
06:19PM 40.8825 -74.6081 22° Northeast 122 140 9,500 -120 Descending New York Center
06:20PM 40.9028 -74.5653 58° Northeast 122 140 9,500  Level New York Center
06:22PM 40.9500 -74.4667 58° Northeast 125 144 9,500  Level New York TRACON
06:23PM 40.9667 -74.4333 56° Northeast 125 144 9,600  Climbing New York TRACON
06:24PM 40.9833 -74.4000 56° Northeast 124 143 9,600 -60 Level New York TRACON
06:25PM 41.0000 -74.3500 66° East 124 143 9,500 -60 Descending New York TRACON
06:26PM 41.0333 -74.3167 37° Northeast 125 144 9,500  Level New York TRACON
06:27PM 41.0500 -74.2833 56° Northeast 124 143 9,500  Level New York TRACON
06:28PM 41.0667 -74.2333 66° East 125 144 9,600  Climbing New York TRACON
06:29PM 41.0833 -74.2000 56° Northeast 127 146 9,600 -60 Level New York TRACON
06:30PM 41.1000 -74.1667 56° Northeast 132 152 9,500  Descending New York TRACON
06:31PM 41.1333 -74.1167 48° Northeast 129 148 9,600  Climbing New York TRACON
06:32PM 41.1500 -74.0833 56° Northeast 130 150 9,600  Level New York TRACON
06:33PM 41.1667 -74.0500 56° Northeast 130 150 9,600  Level New York TRACON
06:34PM 41.1833 -74.0000 66° East 127 146 9,600 -60 Level New York TRACON
06:35PM 41.2000 -73.9667 56° Northeast 127 146 9,500  Descending New York TRACON
06:36PM 41.2167 -73.9333 56° Northeast 127 146 9,600  Climbing New York TRACON
06:37PM 41.2333 -73.8833 66° East 127 146 9,500 -120 Descending New York TRACON
06:38PM 41.2500 -73.8500 56° Northeast 125 144 9,400  Descending New York TRACON
06:40PM 41.2922 -73.7744 53° Northeast 124 143 9,600 60 Climbing Boston Center
06:41PM 41.3114 -73.7417 52° Northeast 124 143 9,600  Level Boston Center
06:42PM 41.3306 -73.7006 58° Northeast 124 143 9,700 -60 Climbing Boston Center
06:43PM 41.3475 -73.6650 58° Northeast 119 137 9,500 -120 Descending Boston Center
06:44PM 41.3667 -73.6267 56° Northeast 119 137 9,500  Level Boston Center
06:45PM 41.3836 -73.5939 55° Northeast 124 143 9,500  Level Boston Center
06:46PM 41.4028 -73.5525 58° Northeast 124 143 9,600 60 Climbing Boston Center
06:47PM 41.4200 -73.5169 57° Northeast 124 143 9,700  Climbing Boston Center
06:48PM 41.4411 -73.4758 56° Northeast 124 143 9,700 -60 Level Boston Center
06:49PM 41.4603 -73.4428 52° Northeast 124 143 9,600 -120 Descending Boston Center
06:50PM 41.4814 -73.4017 56° Northeast 124 143 9,500 -120 Descending Boston Center
06:51PM 41.4856 -73.3878 68° East 125 144 9,500 60 Level Boston Center
06:51PM 41.4983 -73.3686 48° Northeast 124 143 9,600  Climbing Boston Center
06:52PM 41.5217 -73.3300 51° Northeast 124 143 9,600 -60 Level Boston Center
06:53PM 41.5428 -73.2917 54° Northeast 118 136 9,500 -60 Descending Boston Center
06:54PM 41.5597 -73.2556 58° Northeast 123 142 9,500  Level Boston Center
06:55PM 41.5808 -73.2144 56° Northeast 123 142 9,500  Level Boston Center
06:56PM 41.5956 -73.1839 57° Northeast 123 142 9,500  Level Boston Center
06:57PM 41.6189 -73.1397 55° Northeast 123 142 9,500  Level Boston Center
06:58PM 41.6419 -73.0956 55° Northeast 122 140 9,600  Climbing Boston Center
06:59PM 41.6567 -73.0653 57° Northeast 118 136 9,500 -60 Descending Boston Center
07:00PM 41.6736 -73.0292 58° Northeast 123 142 9,500  Level Boston Center
07:01PM 41.6947 -72.9878 56° Northeast 123 142 9,500  Level Boston Center
07:02PM 41.7094 -72.9544 59° Northeast 123 142 9,500  Level Boston Center
07:02PM 41.7136 -72.9406 68° East 122 140 9,500  Level Boston Center
07:03PM 41.7306 -72.9131 50° Northeast 123 142 9,500  Level Boston Center
07:03PM 41.7325 -72.9047 73° East 122 140 9,500  Level Boston Center
07:04PM 41.7472 -72.8769 55° Northeast 123 142 9,500  Level Boston Center
07:05PM 41.7494 -72.8631 78° East 120 138 9,500  Level Boston Center
07:05PM 41.7642 -72.8353 55° Northeast 123 142 9,500  Level Boston Center
07:06PM 41.7683 -72.8214 68° East 119 137 9,500  Level Boston Center
07:07PM 41.7872 -72.7825 57° Northeast 120 138 9,500  Level Boston Center
07:08PM 41.8039 -72.7436 60° Northeast 120 138 9,500 -300 Level Boston Center
07:09PM 41.8228 -72.7047 57° Northeast 129 148 9,000 -540 Descending Boston Center
07:10PM 41.8417 -72.6603 60° Northeast 131 151 8,500 -600 Descending Boston Center
07:11PM 41.8625 -72.6183 56° Northeast 138 159 7,800 -720 Descending Boston Center
07:12PM 41.8856 -72.5711 57° Northeast 142 163 7,100 -660 Descending Boston Center
07:13PM 41.9086 -72.5267 55° Northeast 142 163 6,500 -600 Descending Boston Center
07:14PM 41.9314 -72.4819 56° Northeast 143 165 5,900 -600 Descending Boston Center
07:15PM 41.9544 -72.4372 55° Northeast 139 160 5,400 -300 Descending Boston Center
07:16PM 41.9753 -72.3983 54° Northeast 131 151 5,300 -60 Descending Boston Center
07:17PM 41.9981 -72.3592 52° Northeast 127 146 5,300  Level Boston Center
07:18PM 42.0147 -72.3228 58° Northeast 124 143 5,300  Level Boston Center
07:19PM 42.0356 -72.2836 54° Northeast 120 138 5,400 60 Climbing Boston Center
07:20PM 42.0522 -72.2472 58° Northeast 121 139 5,500 60 Climbing Boston Center
07:21PM 42.0689 -72.2025 63° Northeast 122 140 5,600  Climbing Boston Center
07:22PM 42.0875 -72.1658 56° Northeast 122 140 5,500 -240 Descending Boston Center
07:23PM 42.1039 -72.1267 61° Northeast 127 146 5,200 -420 Descending Boston Center
07:24PM 42.1206 -72.0847 62° Northeast 129 148 4,700 -420 Descending Boston Center
07:25PM 42.1372 -72.0425 62° Northeast 128 147 4,400 -360 Descending Boston Center
07:26PM 42.1558 -72.0033 57° Northeast 127 146 4,000 -420 Descending Boston Center
07:27PM 42.1742 -71.9583 61° Northeast 128 147 3,600 -300 Descending Boston Center
07:28PM 42.1908 -71.9189 60° Northeast 124 143 3,400 -120 Descending Boston Center
07:29PM 42.2072 -71.8822 59° Northeast 113 130 3,400  Level Boston Center
07:30PM 42.2239 -71.8403 62° Northeast 117 135 3,500 60 Climbing Boston Center
07:32PM 42.2667 -71.7667 52° Northeast 117 135 3,600  Climbing KA90
07:33PM 42.2667 -71.7333 90° East 115 132 3,600 -60 Level KA90
07:34PM 42.3000 -71.6833 48° Northeast 115 132 3,500  Descending KA90
07:35PM 42.3000 -71.6500 90° East 112 129 3,600  Climbing KA90
07:36PM 42.3167 -71.6167 56° Northeast 118 136 3,600  Level KA90
07:37PM 42.3500 -71.5833 36° Northeast 113 130 3,600 -60 Level KA90
07:38PM 42.3667 -71.5500 56° Northeast 132 152 3,500  Descending KA90
07:39PM 42.4000 -71.5333 20° North 112 129 3,600 -180 Climbing KA90
07:40PM 42.4167 -71.5000 56° Northeast 119 137 3,200 -540 Descending KA90
07:41PM 42.4500 -71.4667 36° Northeast 123 142 2,600 -420 Descending KA90
07:42PM 42.4333 -71.4833 216° Southwest 133 153 2,400 -180 Descending KA90